createdAt,value
2023-05-17T00:00:56.153Z,26.48
2023-05-17T00:02:57.873Z,26.30
2023-05-17T00:04:59.469Z,26.17
2023-05-17T00:07:01.003Z,25.70
2023-05-17T00:09:02.648Z,26.38
2023-05-17T00:11:04.216Z,25.55
2023-05-17T00:13:05.721Z,24.02
2023-05-17T00:15:07.631Z,23.88
2023-05-17T00:17:09.083Z,24.23
2023-05-17T00:19:10.617Z,26.00
2023-05-17T00:21:12.313Z,23.42
2023-05-17T00:23:13.731Z,25.42
2023-05-17T00:25:15.178Z,23.73
2023-05-17T00:27:16.706Z,23.80
2023-05-17T00:29:18.173Z,23.58
2023-05-17T00:31:19.647Z,23.55
2023-05-17T00:33:21.157Z,22.35
2023-05-17T00:35:22.795Z,21.88
2023-05-17T00:37:24.283Z,21.98
2023-05-17T00:39:25.808Z,20.95
2023-05-17T00:41:27.285Z,20.42
2023-05-17T00:43:28.745Z,20.02
2023-05-17T00:45:30.834Z,20.30
2023-05-17T00:47:32.318Z,19.85
2023-05-17T00:49:33.837Z,19.48
2023-05-17T00:51:35.848Z,20.48
2023-05-17T00:53:37.707Z,19.75
2023-05-17T00:55:39.154Z,17.50
2023-05-17T00:57:40.853Z,18.30
2023-05-17T00:59:44.567Z,17.45
2023-05-17T01:03:48.162Z,16.67
2023-05-17T01:05:50.901Z,17.85
2023-05-17T01:07:52.323Z,17.73
2023-05-17T01:09:53.873Z,17.88
2023-05-17T01:12:32.245Z,18.08
2023-05-17T01:14:36.571Z,17.52
2023-05-17T01:16:44.346Z,17.65
2023-05-17T01:18:52.388Z,17.67
2023-05-17T01:20:57.301Z,17.77
2023-05-17T01:23:24.452Z,17.90
2023-05-17T01:25:32.865Z,17.77
2023-05-17T01:27:37.860Z,18.48
2023-05-17T01:29:42.224Z,17.88
2023-05-17T01:31:44.749Z,18.63
2023-05-17T01:33:46.683Z,18.60
2023-05-17T01:35:48.248Z,18.58
2023-05-17T01:37:49.776Z,18.55
2023-05-17T01:39:51.278Z,20.85
2023-05-17T01:42:04.919Z,19.63
2023-05-17T01:44:16.161Z,18.73
2023-05-17T01:46:28.541Z,18.27
2023-05-17T01:48:39.492Z,17.83
2023-05-17T01:50:42.802Z,19.02
2023-05-17T01:52:53.399Z,19.92
2023-05-17T01:55:05.547Z,18.83
2023-05-17T01:57:08.682Z,18.40
2023-05-17T01:59:14.598Z,17.65
2023-05-17T02:01:18.678Z,18.10
2023-05-17T02:03:20.953Z,18.38
2023-05-17T02:05:22.477Z,17.30
2023-05-17T02:07:24.241Z,17.77
2023-05-17T02:09:25.741Z,17.70
2023-05-17T02:11:27.172Z,17.40
2023-05-17T02:13:28.695Z,17.88
2023-05-17T02:15:30.575Z,17.00
2023-05-17T02:17:32.303Z,16.52
2023-05-17T02:19:34.165Z,17.75
2023-05-17T02:21:35.815Z,17.23
2023-05-17T02:23:37.259Z,18.00
2023-05-17T02:25:38.812Z,18.33
2023-05-17T02:27:40.328Z,17.33
2023-05-17T02:29:41.792Z,17.98
2023-05-17T02:31:43.468Z,16.63
2023-05-17T02:33:44.970Z,17.20
2023-05-17T02:35:46.434Z,17.70
2023-05-17T02:37:48.036Z,17.83
2023-05-17T02:39:49.484Z,17.85
2023-05-17T02:41:50.946Z,16.45
2023-05-17T02:43:52.663Z,17.38
2023-05-17T02:45:54.122Z,17.58
2023-05-17T02:47:55.583Z,17.50
2023-05-17T02:49:57.221Z,17.50
2023-05-17T02:51:58.715Z,16.73
2023-05-17T02:54:00.144Z,17.50
2023-05-17T02:56:01.766Z,18.23
2023-05-17T02:58:03.229Z,17.67
2023-05-17T03:00:05.166Z,17.88
2023-05-17T03:02:06.835Z,16.55
2023-05-17T03:04:08.757Z,17.17
2023-05-17T03:06:10.277Z,17.38
2023-05-17T03:08:11.804Z,18.13
2023-05-17T03:10:13.350Z,17.90
2023-05-17T03:12:14.833Z,17.73
2023-05-17T03:14:16.364Z,17.77
2023-05-17T03:16:18.520Z,17.65
2023-05-17T03:18:20.076Z,18.10
2023-05-17T03:20:21.871Z,17.38
2023-05-17T03:22:23.349Z,18.65
2023-05-17T03:24:24.820Z,18.58
2023-05-17T03:26:26.455Z,18.00
2023-05-17T03:28:27.897Z,18.05
2023-05-17T03:30:29.403Z,17.70
2023-05-17T03:32:31.213Z,16.13
2023-05-17T03:34:32.717Z,17.85
2023-05-17T03:36:35.024Z,18.15
2023-05-17T03:38:36.772Z,18.63
2023-05-17T03:40:38.542Z,17.02
2023-05-17T03:42:40.003Z,18.33
2023-05-17T03:44:41.635Z,16.55
2023-05-17T03:46:43.225Z,18.42
2023-05-17T03:48:44.690Z,17.88
2023-05-17T03:50:46.151Z,17.10
2023-05-17T03:52:47.594Z,17.65
2023-05-17T03:54:49.040Z,19.40
2023-05-17T03:56:50.672Z,19.27
2023-05-17T03:58:52.281Z,18.27
2023-05-17T04:00:53.789Z,17.60
2023-05-17T04:02:55.251Z,18.23
2023-05-17T04:04:57.064Z,16.83
2023-05-17T04:06:58.563Z,16.67
2023-05-17T04:09:00.298Z,18.52
2023-05-17T04:11:01.940Z,17.45
2023-05-17T04:13:03.417Z,18.13
2023-05-17T04:15:06.088Z,18.00
2023-05-17T04:17:07.508Z,16.50
2023-05-17T04:19:09.164Z,17.65
2023-05-17T04:21:10.896Z,17.63
2023-05-17T04:23:12.363Z,16.10
2023-05-17T04:25:13.814Z,15.82
2023-05-17T04:27:15.354Z,15.80
2023-05-17T04:29:16.788Z,15.35
2023-05-17T04:31:18.295Z,15.80
2023-05-17T04:33:19.952Z,16.27
2023-05-17T04:35:21.430Z,16.67
2023-05-17T04:37:23.076Z,16.15
2023-05-17T04:39:24.754Z,16.20
2023-05-17T04:41:26.211Z,16.95
2023-05-17T04:43:27.703Z,16.05
2023-05-17T04:45:29.491Z,15.80
2023-05-17T04:47:31.065Z,16.08
2023-05-17T04:49:32.556Z,15.38
2023-05-17T04:51:34.202Z,16.20
2023-05-17T04:53:35.771Z,16.13
2023-05-17T04:55:37.254Z,17.40
2023-05-17T04:57:38.924Z,17.20
2023-05-17T04:59:40.367Z,14.00
2023-05-17T05:01:41.813Z,15.27
2023-05-17T05:03:43.501Z,17.15
2023-05-17T05:05:45.241Z,19.45
2023-05-17T05:07:46.680Z,16.13
2023-05-17T05:09:48.302Z,14.88
2023-05-17T05:11:49.747Z,14.93
2023-05-17T05:13:51.182Z,14.50
2023-05-17T05:15:52.856Z,19.00
2023-05-17T05:17:54.392Z,15.80
2023-05-17T05:19:55.956Z,17.73
2023-05-17T05:21:57.623Z,14.68
2023-05-17T05:23:59.052Z,18.85
2023-05-17T05:26:00.554Z,16.55
2023-05-17T05:28:02.324Z,15.52
2023-05-17T05:30:04.364Z,10.13
2023-05-17T05:32:06.281Z,10.35
2023-05-17T05:34:08.064Z,10.80
2023-05-17T05:36:09.699Z,9.25
2023-05-17T05:38:11.128Z,10.88
2023-05-17T05:40:13.159Z,10.68
2023-05-17T05:42:14.599Z,11.60
2023-05-17T05:44:16.029Z,11.70
2023-05-17T05:46:17.672Z,11.20
2023-05-17T05:48:19.210Z,10.35
2023-05-17T05:50:20.766Z,9.02
2023-05-17T05:52:22.393Z,9.38
2023-05-17T05:54:23.855Z,10.18
2023-05-17T05:56:25.554Z,8.30
2023-05-17T05:58:27.231Z,8.27
2023-05-17T06:00:28.876Z,8.55
2023-05-17T06:02:30.556Z,9.43
2023-05-17T06:04:43.800Z,8.50
2023-05-17T06:06:46.866Z,9.65
2023-05-17T06:08:48.397Z,9.65
2023-05-17T06:10:50.008Z,8.13
2023-05-17T06:12:51.453Z,8.27
2023-05-17T06:14:52.892Z,8.50
2023-05-17T06:16:54.538Z,8.50
2023-05-17T06:18:56.091Z,8.05
2023-05-17T06:20:57.682Z,11.52
2023-05-17T06:23:01.724Z,10.10
2023-05-17T06:25:03.261Z,9.50
2023-05-17T06:27:05.042Z,9.48
2023-05-17T06:29:06.739Z,8.98
2023-05-17T06:31:08.178Z,9.88
2023-05-17T06:33:09.696Z,9.68
2023-05-17T06:35:11.454Z,9.75
2023-05-17T06:37:12.904Z,9.35
2023-05-17T06:39:14.417Z,7.47
2023-05-17T06:41:17.336Z,7.60
2023-05-17T06:43:18.770Z,7.68
2023-05-17T06:45:20.190Z,9.27
2023-05-17T06:47:21.699Z,9.77
2023-05-17T06:49:23.834Z,8.32
2023-05-17T06:51:25.253Z,7.88
2023-05-17T06:53:26.740Z,8.23
2023-05-17T06:55:29.036Z,8.07
2023-05-17T06:57:31.951Z,8.68
2023-05-17T06:59:33.636Z,14.40
2023-05-17T07:01:35.076Z,18.10
2023-05-17T07:03:36.730Z,15.48
2023-05-17T07:05:38.514Z,13.50
2023-05-17T07:07:43.230Z,9.70
2023-05-17T07:09:44.674Z,8.85
2023-05-17T07:11:46.224Z,8.85
2023-05-17T07:13:47.670Z,9.50
2023-05-17T07:15:49.159Z,10.20
2023-05-17T07:17:50.690Z,10.93
2023-05-17T07:19:52.377Z,10.50
2023-05-17T07:21:53.854Z,8.98
2023-05-17T07:23:55.514Z,8.73
2023-05-17T07:25:57.006Z,9.15
2023-05-17T07:27:58.487Z,8.65
2023-05-17T07:30:01.296Z,8.75
2023-05-17T07:32:02.919Z,8.73
2023-05-17T07:34:04.884Z,8.05
2023-05-17T07:36:06.893Z,9.20
2023-05-17T07:38:08.992Z,10.18
2023-05-17T07:40:10.910Z,9.95
2023-05-17T07:42:12.479Z,9.98
2023-05-17T07:44:13.948Z,9.15
2023-05-17T07:46:15.560Z,8.45
2023-05-17T07:48:17.110Z,8.82
2023-05-17T07:50:19.276Z,9.65
2023-05-17T07:52:20.901Z,10.15
2023-05-17T07:54:23.714Z,10.68
2023-05-17T07:56:25.202Z,10.30
2023-05-17T07:58:26.724Z,9.40
2023-05-17T08:00:28.467Z,9.07
2023-05-17T08:02:30.014Z,8.07
2023-05-17T08:04:31.511Z,7.35
2023-05-17T08:06:33.080Z,7.32
2023-05-17T08:08:34.830Z,7.20
2023-05-17T08:10:36.275Z,7.30
2023-05-17T08:12:37.964Z,5.93
2023-05-17T08:14:39.782Z,5.20
2023-05-17T08:16:45.876Z,5.18
2023-05-17T08:18:47.861Z,5.43
2023-05-17T08:20:49.430Z,5.75
2023-05-17T08:22:50.910Z,5.65
2023-05-17T08:24:52.460Z,4.80
2023-05-17T08:26:53.901Z,5.50
2023-05-17T08:28:55.366Z,3.50
2023-05-17T08:30:56.927Z,3.10
2023-05-17T08:32:58.514Z,3.40
2023-05-17T08:35:00.168Z,3.00
2023-05-17T08:37:03.273Z,2.83
2023-05-17T08:39:04.868Z,3.20
2023-05-17T08:41:06.309Z,3.30
2023-05-17T08:43:14.627Z,3.25
2023-05-17T08:45:16.591Z,4.07
2023-05-17T08:47:19.502Z,3.65
2023-05-17T08:49:25.426Z,3.60
2023-05-17T08:51:27.694Z,3.90
2023-05-17T08:53:29.636Z,4.38
2023-05-17T08:55:33.144Z,4.38
2023-05-17T08:57:35.740Z,4.50
2023-05-17T08:59:39.004Z,4.75
2023-05-17T09:01:41.565Z,4.75
2023-05-17T09:03:47.274Z,4.90
2023-05-17T09:05:51.204Z,4.32
2023-05-17T09:07:53.021Z,4.85
2023-05-17T09:09:54.957Z,4.55
2023-05-17T09:11:56.385Z,4.38
2023-05-17T09:14:02.105Z,4.47
2023-05-17T09:16:13.246Z,3.80
2023-05-17T09:18:17.768Z,3.53
2023-05-17T09:20:24.820Z,4.50
2023-05-17T09:22:26.420Z,6.72
2023-05-17T09:24:29.885Z,7.90
2023-05-17T09:26:44.978Z,6.20
2023-05-17T09:28:46.482Z,13.13
2023-05-17T09:30:49.494Z,8.05
2023-05-17T09:32:51.165Z,4.38
2023-05-17T09:34:52.681Z,5.60
2023-05-17T09:36:54.134Z,13.90
2023-05-17T09:39:00.980Z,16.80
2023-05-17T09:41:02.477Z,8.20
2023-05-17T09:43:04.061Z,4.15
2023-05-17T09:45:05.932Z,5.50
2023-05-17T09:47:07.392Z,4.53
2023-05-17T09:49:08.955Z,4.07
2023-05-17T09:51:10.644Z,3.75
2023-05-17T09:53:25.163Z,3.95
2023-05-17T09:55:26.784Z,3.67
2023-05-17T09:57:36.577Z,3.92
2023-05-17T09:59:38.859Z,3.65
2023-05-17T10:01:41.676Z,4.10
2023-05-17T10:03:43.496Z,4.57
2023-05-17T10:05:46.829Z,3.50
2023-05-17T10:07:50.018Z,3.35
2023-05-17T10:09:52.981Z,3.38
2023-05-17T10:11:55.790Z,4.05
2023-05-17T10:13:59.976Z,2.38
2023-05-17T10:16:02.102Z,2.38
2023-05-17T10:18:04.255Z,2.55
2023-05-17T10:20:07.808Z,2.60
2023-05-17T10:22:21.728Z,2.95
2023-05-17T10:24:24.172Z,2.80
2023-05-17T10:26:25.630Z,2.67
2023-05-17T10:28:27.744Z,2.28
2023-05-17T10:30:29.514Z,3.03
2023-05-17T10:32:31.495Z,2.22
2023-05-17T10:34:38.813Z,2.90
2023-05-17T10:36:42.523Z,2.42
2023-05-17T10:38:45.382Z,2.58
2023-05-17T10:40:47.583Z,2.60
2023-05-17T10:42:53.768Z,2.67
2023-05-17T10:44:55.451Z,2.20
2023-05-17T10:46:58.541Z,2.10
2023-05-17T10:49:01.307Z,2.78
2023-05-17T10:51:07.566Z,2.25
2023-05-17T10:53:09.849Z,2.33
2023-05-17T10:55:11.371Z,2.25
2023-05-17T10:57:49.643Z,25.88
2023-05-17T11:00:00.524Z,6.45
2023-05-17T11:02:07.558Z,7.07
2023-05-17T11:04:34.573Z,3.10
2023-05-17T11:06:36.471Z,2.83
2023-05-17T11:08:44.160Z,3.20
2023-05-17T11:11:11.705Z,3.47
2023-05-17T11:13:25.668Z,3.28
2023-05-17T11:17:35.332Z,2.70
2023-05-17T11:19:37.025Z,3.10
2023-05-17T11:21:48.560Z,2.47
2023-05-17T11:23:55.422Z,2.92
2023-05-17T11:26:21.892Z,2.97
2023-05-17T11:28:23.510Z,2.95
2023-05-17T11:30:27.222Z,2.60
2023-05-17T11:32:31.322Z,2.80
2023-05-17T11:34:33.914Z,3.38
2023-05-17T11:36:55.573Z,3.28
2023-05-17T11:39:11.214Z,4.20
2023-05-17T11:41:26.863Z,3.33
2023-05-17T11:43:29.119Z,4.68
2023-05-17T11:45:41.704Z,4.47
2023-05-17T11:47:48.622Z,4.30
2023-05-17T11:49:50.195Z,4.72
2023-05-17T11:51:51.868Z,3.67
2023-05-17T11:53:56.244Z,3.83
2023-05-17T11:56:02.188Z,3.45
2023-05-17T11:58:04.549Z,3.97
2023-05-17T12:00:06.695Z,4.40
2023-05-17T12:02:08.138Z,3.88
2023-05-17T12:04:09.783Z,3.80
2023-05-17T12:06:13.393Z,2.92
2023-05-17T12:10:17.249Z,3.70
2023-05-17T12:12:19.651Z,3.67
2023-05-17T12:14:21.395Z,3.67
2023-05-17T12:16:23.705Z,3.40
2023-05-17T12:18:35.296Z,3.63
2023-05-17T12:20:36.923Z,4.00
2023-05-17T12:22:54.924Z,3.55
2023-05-17T12:24:56.414Z,3.40
2023-05-17T12:26:57.965Z,4.10
2023-05-17T12:29:00.720Z,4.25
2023-05-17T12:31:03.413Z,4.00
2023-05-17T12:33:05.517Z,3.67
2023-05-17T12:35:07.530Z,3.90
2023-05-17T12:37:09.427Z,3.75
2023-05-17T12:39:12.545Z,4.28
2023-05-17T12:41:15.903Z,3.72
2023-05-17T12:43:17.402Z,3.50
2023-05-17T12:45:18.995Z,3.30
2023-05-17T12:47:20.609Z,3.95
2023-05-17T12:49:22.072Z,3.60
2023-05-17T12:51:23.767Z,3.92
2023-05-17T12:53:34.774Z,3.88
2023-05-17T12:55:37.632Z,4.40
2023-05-17T12:57:39.078Z,4.15
2023-05-17T12:59:48.061Z,4.50
2023-05-17T13:01:51.746Z,4.82
2023-05-17T13:06:08.516Z,3.88
2023-05-17T13:08:22.455Z,4.28
2023-05-17T13:10:26.088Z,4.30
2023-05-17T13:12:27.890Z,4.10
2023-05-17T13:14:49.382Z,4.45
2023-05-17T13:16:51.564Z,4.35
2023-05-17T13:18:53.518Z,4.65
2023-05-17T13:20:55.126Z,4.38
2023-05-17T13:22:56.608Z,4.30
2023-05-17T13:24:58.337Z,4.53
2023-05-17T13:26:59.793Z,5.00
2023-05-17T13:29:01.239Z,4.50
2023-05-17T13:31:02.944Z,5.07
2023-05-17T13:33:04.577Z,4.65
2023-05-17T13:35:06.783Z,5.10
2023-05-17T13:37:11.528Z,4.75
2023-05-17T13:39:14.143Z,4.72
2023-05-17T13:41:15.953Z,5.32
2023-05-17T13:43:17.708Z,5.00
2023-05-17T13:45:19.165Z,4.97
2023-05-17T13:47:20.801Z,5.03
2023-05-17T13:49:22.515Z,5.10
2023-05-17T13:51:24.282Z,4.85
2023-05-17T13:53:25.822Z,5.20
2023-05-17T13:55:27.633Z,4.55
2023-05-17T13:57:29.113Z,4.85
2023-05-17T13:59:30.646Z,4.97
2023-05-17T14:01:32.173Z,4.78
2023-05-17T14:03:33.798Z,5.22
2023-05-17T14:05:35.457Z,5.60
2023-05-17T14:07:37.134Z,4.57
2023-05-17T14:09:39.062Z,4.90
2023-05-17T14:11:40.558Z,4.45
2023-05-17T14:13:42.217Z,5.13
2023-05-17T14:15:43.798Z,4.88
2023-05-17T14:17:45.356Z,5.10
2023-05-17T14:19:47.238Z,4.40
2023-05-17T14:21:48.835Z,5.00
2023-05-17T14:23:50.292Z,6.35
2023-05-17T14:25:51.870Z,8.02
2023-05-17T14:27:53.811Z,5.18
2023-05-17T14:29:55.557Z,5.72
2023-05-17T14:31:57.280Z,5.82
2023-05-17T14:33:59.166Z,4.70
2023-05-17T14:36:00.658Z,4.65
2023-05-17T14:38:02.402Z,4.97
2023-05-17T14:40:06.774Z,5.22
2023-05-17T14:42:08.588Z,4.32
2023-05-17T14:44:10.192Z,4.30
2023-05-17T14:46:11.619Z,5.18
2023-05-17T14:48:13.182Z,4.22
2023-05-17T14:50:16.576Z,4.38
2023-05-17T14:52:18.006Z,4.78
2023-05-17T14:54:19.495Z,5.00
2023-05-17T14:56:21.188Z,4.35
2023-05-17T14:58:22.644Z,5.20
2023-05-17T15:00:24.208Z,5.35
2023-05-17T15:02:25.697Z,5.30
2023-05-17T15:04:27.249Z,5.25
2023-05-17T15:06:28.738Z,5.45
2023-05-17T15:08:30.173Z,6.05
2023-05-17T15:10:31.912Z,5.95
2023-05-17T15:12:33.366Z,5.50
2023-05-17T15:14:34.899Z,4.82
2023-05-17T15:16:36.560Z,5.05
2023-05-17T15:18:38.096Z,5.97
2023-05-17T15:20:40.234Z,6.00
2023-05-17T15:22:41.678Z,5.10
2023-05-17T15:24:44.968Z,4.88
2023-05-17T15:26:46.607Z,5.28
2023-05-17T15:28:48.260Z,5.40
2023-05-17T15:31:00.174Z,5.15
2023-05-17T15:33:01.917Z,6.60
2023-05-17T15:35:03.502Z,9.10
2023-05-17T15:37:04.956Z,10.35
2023-05-17T15:39:06.486Z,7.22
2023-05-17T15:41:12.056Z,6.50
2023-05-17T15:43:13.494Z,5.80
2023-05-17T15:45:17.353Z,5.65
2023-05-17T15:47:19.366Z,5.63
2023-05-17T15:49:21.947Z,4.85
2023-05-17T15:51:23.541Z,4.88
2023-05-17T15:53:27.957Z,4.28
2023-05-17T15:55:30.104Z,5.63
2023-05-17T15:57:32.099Z,5.63
2023-05-17T15:59:33.745Z,5.07
2023-05-17T16:01:35.390Z,4.82
2023-05-17T16:03:37.053Z,5.22
2023-05-17T16:05:39.272Z,5.55
2023-05-17T16:07:40.707Z,5.45
2023-05-17T16:09:42.335Z,4.90
2023-05-17T16:11:43.775Z,4.10
2023-05-17T16:13:45.212Z,5.05
2023-05-17T16:15:46.758Z,4.30
2023-05-17T16:17:48.660Z,4.63
2023-05-17T16:19:50.296Z,4.93
2023-05-17T16:21:51.861Z,5.20
2023-05-17T16:23:53.301Z,4.75
2023-05-17T16:25:55.071Z,5.50
2023-05-17T16:27:56.548Z,4.70
2023-05-17T16:29:57.968Z,5.32
2023-05-17T16:31:59.393Z,5.43
2023-05-17T16:34:01.069Z,5.95
2023-05-17T16:36:03.849Z,5.88
2023-05-17T16:38:05.309Z,5.38
2023-05-17T16:40:07.518Z,5.18
2023-05-17T16:42:08.950Z,4.93
2023-05-17T16:44:10.410Z,5.85
2023-05-17T16:46:11.870Z,5.63
2023-05-17T16:48:14.370Z,5.30
2023-05-17T16:50:16.110Z,6.40
2023-05-17T16:52:17.810Z,4.97
2023-05-17T16:54:19.354Z,8.25
2023-05-17T16:56:20.772Z,7.28
2023-05-17T16:58:22.408Z,5.03
2023-05-17T17:00:24.016Z,6.18
2023-05-17T17:02:25.835Z,5.50
2023-05-17T17:04:27.478Z,6.30
2023-05-17T17:06:28.932Z,7.10
2023-05-17T17:08:30.533Z,39.00
2023-05-17T17:10:32.317Z,10.82
2023-05-17T17:12:33.877Z,9.05
2023-05-17T17:14:35.351Z,7.22
2023-05-17T17:16:37.247Z,6.60
2023-05-17T17:18:38.928Z,7.38
2023-05-17T17:20:40.391Z,31.42
2023-05-17T17:22:42.042Z,6.80
2023-05-17T17:24:43.499Z,8.30
2023-05-17T17:26:44.942Z,9.35
2023-05-17T17:28:46.403Z,12.60
2023-05-17T17:30:48.361Z,14.57
2023-05-17T17:32:50.062Z,8.23
2023-05-17T17:34:51.755Z,10.90
2023-05-17T17:36:54.120Z,10.38
2023-05-17T17:38:55.555Z,12.20
2023-05-17T17:40:57.184Z,14.32
2023-05-17T17:42:58.614Z,17.45
2023-05-17T17:45:00.078Z,7.95
2023-05-17T17:47:01.743Z,6.68
2023-05-17T17:49:03.685Z,9.15
2023-05-17T17:51:05.218Z,14.73
2023-05-17T17:53:06.777Z,10.23
2023-05-17T17:55:09.006Z,12.90
2023-05-17T17:57:10.431Z,8.48
2023-05-17T17:59:11.886Z,7.18
2023-05-17T18:01:13.461Z,10.93
2023-05-17T18:03:15.083Z,9.95
2023-05-17T18:05:17.009Z,10.18
2023-05-17T18:07:18.470Z,7.60
2023-05-17T18:09:19.987Z,6.93
2023-05-17T18:11:21.432Z,9.57
2023-05-17T18:13:23.235Z,6.18
2023-05-17T18:15:24.945Z,7.18
2023-05-17T18:17:26.439Z,8.88
2023-05-17T18:19:28.070Z,13.75
2023-05-17T18:21:29.614Z,10.43
2023-05-17T18:23:31.069Z,27.25
2023-05-17T18:25:32.538Z,10.15
2023-05-17T18:27:34.008Z,8.95
2023-05-17T18:29:35.478Z,10.73
2023-05-17T18:31:36.943Z,7.60
2023-05-17T18:33:38.403Z,6.57
2023-05-17T18:35:39.844Z,6.80
2023-05-17T18:37:41.298Z,8.35
2023-05-17T18:39:42.733Z,15.63
2023-05-17T18:41:44.298Z,7.90
2023-05-17T18:43:45.888Z,8.52
2023-05-17T18:45:47.342Z,6.57
2023-05-17T18:47:48.802Z,7.75
2023-05-17T18:49:50.393Z,7.30
2023-05-17T18:51:51.837Z,8.85
2023-05-17T18:53:53.284Z,9.88
2023-05-17T18:55:55.201Z,5.80
2023-05-17T18:57:56.638Z,5.07
2023-05-17T18:59:58.071Z,6.53
2023-05-17T19:01:59.691Z,5.05
2023-05-17T19:04:01.234Z,4.93
2023-05-17T19:06:02.779Z,5.22
2023-05-17T19:08:04.489Z,3.88
2023-05-17T19:10:06.532Z,6.00
2023-05-17T19:12:08.527Z,3.80
2023-05-17T19:14:10.060Z,5.47
2023-05-17T19:16:11.493Z,4.03
2023-05-17T19:18:13.031Z,4.30
2023-05-17T19:20:14.740Z,3.90
2023-05-17T19:22:16.169Z,6.80
2023-05-17T19:24:17.595Z,4.43
2023-05-17T19:26:19.273Z,4.18
2023-05-17T19:28:21.541Z,3.97
2023-05-17T19:30:22.979Z,4.20
2023-05-17T19:32:24.480Z,4.22
2023-05-17T19:34:25.932Z,3.75
2023-05-17T19:36:27.892Z,3.88
2023-05-17T19:38:29.653Z,4.20
2023-05-17T19:40:31.220Z,4.47
2023-05-17T19:42:32.887Z,4.10
2023-05-17T19:44:34.515Z,3.78
2023-05-17T19:46:35.994Z,3.67
2023-05-17T19:48:37.647Z,3.95
2023-05-17T19:50:39.249Z,3.42
2023-05-17T19:52:40.724Z,5.30
2023-05-17T19:54:42.170Z,6.18
2023-05-17T19:56:43.716Z,8.95
2023-05-17T19:58:45.148Z,10.82
2023-05-17T20:00:46.881Z,6.53
2023-05-17T20:02:50.823Z,4.00
2023-05-17T20:04:52.344Z,4.18
2023-05-17T20:06:53.821Z,4.22
2023-05-17T20:08:55.411Z,4.40
2023-05-17T20:10:56.856Z,3.70
2023-05-17T20:12:58.474Z,4.22
2023-05-17T20:14:59.946Z,4.75
2023-05-17T20:17:01.385Z,6.18
2023-05-17T20:19:02.881Z,9.23
2023-05-17T20:21:04.572Z,7.68
2023-05-17T20:23:06.045Z,6.78
2023-05-17T20:25:07.494Z,5.13
2023-05-17T20:27:08.935Z,5.15
2023-05-17T20:29:10.655Z,5.07
2023-05-17T20:31:12.390Z,4.63
2023-05-17T20:33:13.932Z,4.53
2023-05-17T20:35:15.489Z,4.40
2023-05-17T20:37:17.082Z,4.97
2023-05-17T20:39:20.222Z,4.40
2023-05-17T20:41:23.654Z,3.47
2023-05-17T20:43:25.072Z,3.67
2023-05-17T20:45:26.674Z,3.78
2023-05-17T20:47:28.129Z,3.90
2023-05-17T20:49:29.613Z,3.88
2023-05-17T20:51:31.364Z,4.50
2023-05-17T20:53:32.798Z,4.22
2023-05-17T20:55:34.267Z,3.75
2023-05-17T20:57:35.970Z,4.68
2023-05-17T20:59:37.398Z,3.08
2023-05-17T21:01:38.879Z,4.00
2023-05-17T21:03:40.682Z,4.15
2023-05-17T21:05:42.297Z,3.85
2023-05-17T21:07:43.724Z,3.95
2023-05-17T21:09:45.853Z,4.00
2023-05-17T21:11:47.297Z,5.75
2023-05-17T21:13:49.490Z,4.22
2023-05-17T21:15:56.246Z,4.47
2023-05-17T21:17:57.927Z,4.65
2023-05-17T21:19:59.438Z,3.58
2023-05-17T21:22:01.164Z,4.90
2023-05-17T21:24:03.048Z,3.00
2023-05-17T21:26:06.150Z,4.07
2023-05-17T21:28:08.060Z,3.28
2023-05-17T21:30:09.852Z,4.57
2023-05-17T21:32:11.304Z,5.18
2023-05-17T21:34:12.952Z,4.85
2023-05-17T21:36:14.400Z,3.08
2023-05-17T21:38:15.811Z,3.30
2023-05-17T21:40:17.421Z,5.35
2023-05-17T21:42:18.852Z,4.22
2023-05-17T21:44:20.309Z,2.90
2023-05-17T21:46:21.973Z,3.08
2023-05-17T21:48:23.428Z,3.50
2023-05-17T21:50:24.907Z,4.80
2023-05-17T21:52:26.559Z,3.90
2023-05-17T21:54:27.982Z,3.17
2023-05-17T21:56:29.423Z,3.22
2023-05-17T21:58:31.768Z,3.00
2023-05-17T22:00:33.203Z,3.03
2023-05-17T22:02:35.158Z,3.03
2023-05-17T22:04:38.383Z,3.20
2023-05-17T22:06:40.294Z,2.65
2023-05-17T22:08:41.750Z,2.92
2023-05-17T22:10:43.273Z,3.13
2023-05-17T22:12:44.699Z,2.45
2023-05-17T22:14:46.324Z,2.55
2023-05-17T22:16:47.772Z,3.10
2023-05-17T22:18:50.146Z,3.00
2023-05-17T22:20:51.663Z,2.33
2023-05-17T22:22:53.364Z,3.20
2023-05-17T22:24:54.787Z,2.95
2023-05-17T22:26:56.327Z,3.08
2023-05-17T22:28:57.785Z,3.00
2023-05-17T22:30:59.340Z,2.90
2023-05-17T22:33:00.968Z,3.90
2023-05-17T22:35:02.563Z,2.70
2023-05-17T22:37:04.900Z,2.40
2023-05-17T22:39:06.366Z,2.80
2023-05-17T22:41:09.047Z,2.97
2023-05-17T22:43:10.485Z,3.25
2023-05-17T22:45:12.289Z,2.75
2023-05-17T22:47:13.842Z,3.03
2023-05-17T22:49:15.410Z,2.72
2023-05-17T22:51:16.836Z,2.58
2023-05-17T22:53:18.277Z,2.65
2023-05-17T22:55:19.774Z,2.60
2023-05-17T22:57:21.259Z,2.80
2023-05-17T22:59:22.702Z,2.95
2023-05-17T23:01:24.510Z,2.88
2023-05-17T23:03:26.063Z,3.00
2023-05-17T23:05:27.644Z,2.80
2023-05-17T23:07:32.765Z,2.63
2023-05-17T23:09:34.282Z,3.15
2023-05-17T23:11:35.703Z,3.03
2023-05-17T23:13:37.133Z,2.83
2023-05-17T23:15:38.901Z,2.80
2023-05-17T23:17:40.367Z,3.08
2023-05-17T23:19:41.850Z,2.65
2023-05-17T23:21:43.737Z,2.85
2023-05-17T23:23:45.344Z,2.92
2023-05-17T23:25:46.805Z,2.80
2023-05-17T23:27:48.339Z,3.55
2023-05-17T23:29:49.772Z,3.13
2023-05-17T23:31:51.276Z,3.40
2023-05-17T23:33:52.916Z,2.90
2023-05-17T23:35:54.439Z,3.22
2023-05-17T23:37:55.876Z,2.83
2023-05-17T23:39:57.480Z,3.53
2023-05-17T23:41:58.915Z,3.08
2023-05-17T23:44:00.329Z,3.20
2023-05-17T23:46:01.969Z,3.60
2023-05-17T23:48:03.491Z,3.00
2023-05-17T23:50:05.430Z,3.33
2023-05-17T23:52:07.410Z,3.25
2023-05-17T23:54:08.862Z,3.53
2023-05-17T23:56:10.475Z,3.08
2023-05-17T23:58:12.147Z,3.15
